Time;durP1;ratioP1;P1;durP2;ratioP2;P2;SDS_P1;SDS_P2;PMS_P1;PMS_P2;Temp;Humidity;BMP_temperature;BMP_pressure;BME280_temperature;BME280_humidity;BME280_pressure;Samples;Min_cycle;Max_cycle;Signal;HPM_P1;HPM_P2
2022/03/08 00:02:10;;;;;;;53.53;19.75;;;;;;;-149.78;100.00;50563.38;4822340;29;20042;-68
2022/03/08 00:04:36;;;;;;;52.13;19.88;;;;;;;-149.78;100.00;50541.84;4822398;29;20046;-68
2022/03/08 00:07:02;;;;;;;53.30;19.77;;;;;;;-149.78;100.00;50582.94;4815842;29;20073;-68
2022/03/08 00:09:29;;;;;;;54.13;19.42;;;;;;;-149.78;100.00;50557.50;4821903;29;20060;-69
2022/03/08 00:11:54;;;;;;;52.10;20.02;;;;;;;-149.78;100.00;50559.47;4823459;29;20050;-69
2022/03/08 00:14:20;;;;;;;59.38;21.42;;;;;;;-149.78;100.00;50534.03;4823439;29;20066;-68
2022/03/08 00:16:46;;;;;;;55.33;19.25;;;;;;;-149.78;100.00;50545.75;4823210;29;20034;-68
2022/03/08 00:19:12;;;;;;;61.50;21.50;;;;;;;-149.78;100.00;50586.84;4822024;29;20050;-68
2022/03/08 00:21:39;;;;;;;60.30;21.38;;;;;;;-149.78;100.00;50588.78;4823357;29;20045;-68
2022/03/08 00:24:05;;;;;;;62.33;22.00;;;;;;;-149.78;100.00;50557.50;4823276;29;20042;-68
2022/03/08 00:26:31;;;;;;;61.78;21.02;;;;;;;-149.78;100.00;50549.69;4822562;29;20049;-68
2022/03/08 00:28:58;;;;;;;68.60;21.85;;;;;;;-149.78;100.00;50557.50;4822934;29;20054;-69
2022/03/08 00:31:23;;;;;;;58.45;22.13;;;;;;;-149.78;100.00;50537.94;4823323;29;20038;-69
2022/03/08 00:33:49;;;;;;;57.75;21.05;;;;;;;-149.78;100.00;50561.41;4823058;29;20483;-69
2022/03/08 00:36:15;;;;;;;62.13;22.52;;;;;;;-149.78;100.00;50545.75;4793314;29;20054;-68
2022/03/08 00:38:40;;;;;;;66.85;23.48;;;;;;;-149.78;100.00;50573.16;4786748;30;20040;-69
2022/03/08 00:41:06;;;;;;;67.25;23.30;;;;;;;-149.78;100.00;50545.75;4786786;29;20095;-68
2022/03/08 00:43:33;;;;;;;58.72;22.00;;;;;;;-149.78;100.00;50580.97;4787043;30;20126;-68
2022/03/08 00:45:59;;;;;;;62.17;23.40;;;;;;;-149.78;100.00;50573.16;4787163;30;20035;-68
2022/03/08 00:48:25;;;;;;;62.08;22.25;;;;;;;-149.78;100.00;50577.06;4786772;30;20054;-68
2022/03/08 00:50:51;;;;;;;68.63;23.23;;;;;;;-149.78;100.00;50588.78;4786825;30;20392;-69
2022/03/08 00:53:17;;;;;;;64.25;23.23;;;;;;;-149.78;100.00;50569.22;4785708;30;20070;-68
2022/03/08 00:55:44;;;;;;;65.65;23.35;;;;;;;-149.78;100.00;50557.50;4788234;29;20075;-68
2022/03/08 00:58:10;;;;;;;64.78;23.60;;;;;;;-149.78;100.00;50571.19;4790969;29;20039;-69
2022/03/08 01:00:39;;;;;;;68.32;24.00;;;;;;;-149.78;100.00;50565.31;4807079;29;20039;-68
2022/03/08 01:03:05;;;;;;;64.20;22.20;;;;;;;-149.78;100.00;50573.16;4807317;29;20046;-68
2022/03/08 01:05:35;;;;;;;61.78;23.10;;;;;;;-149.78;100.00;50561.41;4792611;29;20047;-69
2022/03/08 01:08:07;;;;;;;64.03;23.05;;;;;;;-149.78;100.00;50565.31;4816255;29;20573;-69
2022/03/08 01:10:33;;;;;;;65.78;22.85;;;;;;;-149.78;100.00;50551.63;4826178;29;20155;-68
2022/03/08 01:13:00;;;;;;;64.20;23.02;;;;;;;-149.78;100.00;50573.16;4826087;29;20046;-68
2022/03/08 01:15:27;;;;;;;63.72;22.95;;;;;;;-149.78;100.00;50580.97;4826124;29;20065;-69
2022/03/08 01:17:55;;;;;;;62.72;22.15;;;;;;;-149.78;100.00;50537.94;4825889;29;20452;-69
2022/03/08 01:20:21;;;;;;;65.57;23.48;;;;;;;-149.78;100.00;50557.50;4825987;29;20030;-69
2022/03/08 01:22:47;;;;;;;64.80;23.10;;;;;;;-149.78;100.00;50561.41;4825759;29;20073;-69
2022/03/08 01:25:16;;;;;;;70.68;23.98;;;;;;;-149.78;100.00;50565.31;4825732;29;20487;-69
2022/03/08 01:27:42;;;;;;;62.70;22.08;;;;;;;-149.78;100.00;50584.88;4825553;29;20049;-69
2022/03/08 01:30:11;;;;;;;64.57;23.02;;;;;;;-149.78;100.00;50569.22;4809538;29;20038;-69
2022/03/08 01:32:37;;;;;;;69.78;23.38;;;;;;;-149.78;100.00;50530.13;4825881;29;20034;-69
2022/03/08 01:35:03;;;;;;;72.05;23.40;;;;;;;-149.78;100.00;50565.31;4825429;29;20111;-69
2022/03/08 01:37:28;;;;;;;61.35;22.08;;;;;;;-149.78;100.00;50582.94;4825558;29;20042;-69
2022/03/08 01:39:54;;;;;;;62.38;23.10;;;;;;;-149.78;100.00;50534.03;4825644;29;20376;-68
2022/03/08 01:42:23;;;;;;;72.30;24.50;;;;;;;-149.78;100.00;50616.19;4825605;29;20405;-68
2022/03/08 01:44:49;;;;;;;58.90;23.00;;;;;;;-149.78;100.00;50592.72;4825447;29;20395;-69
2022/03/08 01:47:18;;;;;;;71.95;24.85;;;;;;;-149.78;100.00;50555.53;4825553;29;20121;-69
2022/03/08 01:49:44;;;;;;;70.20;23.90;;;;;;;-149.78;100.00;50573.16;4823935;29;20384;-68
2022/03/08 01:52:11;;;;;;;63.08;23.33;;;;;;;-149.78;100.00;50569.22;4825309;29;20030;-69
2022/03/08 01:54:37;;;;;;;69.07;24.17;;;;;;;-149.78;100.00;50586.84;4824235;29;20046;-69
2022/03/08 01:57:05;;;;;;;64.32;23.70;;;;;;;-149.78;100.00;50549.69;4825289;29;20128;-69
2022/03/08 01:59:31;;;;;;;64.28;23.40;;;;;;;-149.78;100.00;50588.78;4825342;29;20197;-68
2022/03/08 02:01:57;;;;;;;64.60;22.30;;;;;;;-149.78;100.00;50573.16;4825125;29;20518;-69
2022/03/08 02:04:23;;;;;;;60.90;22.33;;;;;;;-149.78;100.00;50588.78;4824960;29;20042;-69
2022/03/08 02:06:49;;;;;;;63.22;22.60;;;;;;;-149.78;100.00;50551.63;4802847;29;20488;-69
2022/03/08 02:09:15;;;;;;;63.58;22.70;;;;;;;-149.78;100.00;50553.59;4822930;29;20129;-69
2022/03/08 02:11:42;;;;;;;66.82;24.08;;;;;;;-149.78;100.00;50561.41;4825068;29;20038;-69
2022/03/08 02:14:08;;;;;;;67.38;25.40;;;;;;;-149.78;100.00;50563.38;4824972;29;20099;-69
2022/03/08 02:16:34;;;;;;;59.20;23.10;;;;;;;-149.78;100.00;50563.38;4808492;29;20038;-69
2022/03/08 02:19:00;;;;;;;66.53;23.90;;;;;;;-149.78;100.00;50588.78;4824580;29;20074;-68
2022/03/08 02:21:25;;;;;;;65.97;22.77;;;;;;;-149.78;100.00;50534.03;4824847;29;20081;-69
2022/03/08 02:23:52;;;;;;;60.13;22.33;;;;;;;-149.78;100.00;50561.41;4808499;29;20050;-69
2022/03/08 02:26:20;;;;;;;70.63;25.45;;;;;;;-149.78;100.00;50616.19;4808281;29;20105;-68
2022/03/08 02:28:46;;;;;;;74.32;24.00;;;;;;;-149.78;100.00;50553.59;4824698;29;20120;-69
2022/03/08 02:31:12;;;;;;;73.85;25.35;;;;;;;-149.78;100.00;50592.72;4824511;29;20034;-69
2022/03/08 02:33:38;;;;;;;71.38;25.20;;;;;;;-149.78;100.00;50588.78;4823331;29;20530;-69
2022/03/08 02:36:06;;;;;;;65.70;24.25;;;;;;;-149.78;100.00;50604.44;4824801;29;20068;-68
2022/03/08 02:38:32;;;;;;;79.22;26.92;;;;;;;-149.78;100.00;50561.41;4824585;29;20041;-68
2022/03/08 02:40:59;;;;;;;64.03;23.30;;;;;;;-149.78;100.00;50588.78;4811972;29;20389;-69
2022/03/08 02:43:25;;;;;;;74.43;27.10;;;;;;;-149.78;100.00;50608.34;4788456;29;20580;-68
2022/03/08 02:45:50;;;;;;;71.90;26.25;;;;;;;-149.78;100.00;50577.06;4806292;29;20122;-69
2022/03/08 02:48:16;;;;;;;73.88;26.40;;;;;;;-149.78;100.00;50588.78;4790135;29;20477;-69
2022/03/08 02:50:41;;;;;;;76.15;26.85;;;;;;;-149.78;100.00;50557.50;4790069;29;20047;-68
2022/03/08 02:53:07;;;;;;;75.57;27.48;;;;;;;-149.78;100.00;50600.53;4789919;29;20046;-69
2022/03/08 02:55:34;;;;;;;72.85;25.05;;;;;;;-149.78;100.00;50577.06;4805946;29;20094;-68
2022/03/08 02:58:01;;;;;;;79.97;28.23;;;;;;;-149.78;100.00;50561.41;4789846;29;20042;-69
2022/03/08 03:00:29;;;;;;;75.53;27.58;;;;;;;-149.78;100.00;50596.63;4802171;29;20042;-68
2022/03/08 03:02:54;;;;;;;72.75;25.75;;;;;;;-149.78;100.00;50584.88;4820652;29;20042;-69
2022/03/08 03:05:21;;;;;;;77.30;26.92;;;;;;;-149.78;100.00;50549.69;4807489;29;20033;-68
2022/03/08 03:07:47;;;;;;;74.75;28.27;;;;;;;-149.78;100.00;50639.66;4807698;29;20697;-68
2022/03/08 03:10:16;;;;;;;72.72;26.70;;;;;;;-149.78;100.00;50573.16;4824115;29;20149;-68
2022/03/08 03:12:42;;;;;;;72.63;26.73;;;;;;;-149.78;100.00;50596.63;4824240;29;20383;-69
2022/03/08 03:15:10;;;;;;;72.65;26.23;;;;;;;-149.78;100.00;50600.53;4824181;29;20073;-68
2022/03/08 03:17:36;;;;;;;76.88;25.50;;;;;;;-149.78;100.00;50604.44;4820111;29;20084;-68
2022/03/08 03:20:04;;;;;;;75.40;26.02;;;;;;;-149.78;100.00;50569.22;4823474;29;20436;-68
2022/03/08 03:22:30;;;;;;;72.57;26.23;;;;;;;-149.78;100.00;50571.19;4807703;29;20121;-68
2022/03/08 03:24:56;;;;;;;77.63;27.45;;;;;;;-149.78;100.00;50588.78;4792655;29;20133;-68
2022/03/08 03:27:21;;;;;;;70.85;27.23;;;;;;;-149.78;100.00;50600.53;4822483;29;20042;-68
2022/03/08 03:29:47;;;;;;;68.10;23.98;;;;;;;-149.78;100.00;50565.31;4823797;29;20042;-68
2022/03/08 03:32:13;;;;;;;70.40;26.45;;;;;;;-149.78;100.00;50616.19;4823885;29;20046;-69
2022/03/08 03:34:39;;;;;;;72.70;26.33;;;;;;;-149.78;100.00;50561.41;4823522;29;20107;-68
2022/03/08 03:37:04;;;;;;;66.93;26.05;;;;;;;-149.78;100.00;50580.97;4823896;29;20047;-68
2022/03/08 03:39:30;;;;;;;72.32;26.58;;;;;;;-149.78;100.00;50580.97;4822633;29;20074;-69
2022/03/08 03:41:56;;;;;;;78.55;26.92;;;;;;;-149.78;100.00;50553.59;4823980;29;20117;-68
2022/03/08 03:44:22;;;;;;;73.68;26.17;;;;;;;-149.78;100.00;50555.53;4822535;29;20667;-68
2022/03/08 03:46:47;;;;;;;72.75;26.52;;;;;;;-149.78;100.00;50580.97;4823635;29;20045;-69
2022/03/08 03:49:14;;;;;;;76.80;27.95;;;;;;;-149.78;100.00;50575.09;4823680;29;20046;-68
2022/03/08 03:51:40;;;;;;;75.45;26.48;;;;;;;-149.78;100.00;50592.72;4819645;29;20425;-68
2022/03/08 03:54:06;;;;;;;71.25;25.73;;;;;;;-149.78;100.00;50584.88;4805426;29;20096;-69
2022/03/08 03:56:32;;;;;;;74.88;25.77;;;;;;;-149.78;100.00;50514.47;4805269;29;20047;-68
2022/03/08 03:58:57;;;;;;;73.47;25.40;;;;;;;-149.78;100.00;50588.78;4806673;29;20073;-68
2022/03/08 04:01:23;;;;;;;71.90;26.50;;;;;;;-149.78;100.00;50588.78;4823344;29;20053;-68
2022/03/08 04:03:49;;;;;;;71.72;27.13;;;;;;;-149.78;100.00;50549.69;4823313;29;20459;-68
2022/03/08 04:06:15;;;;;;;68.50;24.13;;;;;;;-149.78;100.00;50584.88;4823182;29;20517;-68
2022/03/08 04:08:41;;;;;;;69.13;25.35;;;;;;;-149.78;100.00;50575.09;4822432;29;20471;-68
2022/03/08 04:11:06;;;;;;;64.82;23.90;;;;;;;-149.78;100.00;50575.09;4806087;29;20049;-68
2022/03/08 04:13:32;;;;;;;71.70;27.23;;;;;;;-149.78;100.00;50612.25;4807013;29;20113;-68
2022/03/08 04:15:58;;;;;;;77.63;26.15;;;;;;;-149.78;100.00;50594.66;4806675;29;20042;-68
2022/03/08 04:18:23;;;;;;;72.00;26.23;;;;;;;-149.78;100.00;50526.22;4808875;29;20704;-68
2022/03/08 04:20:49;;;;;;;78.50;27.15;;;;;;;-149.78;100.00;50608.34;4821724;29;20053;-68
2022/03/08 04:23:14;;;;;;;67.82;26.23;;;;;;;-149.78;100.00;50534.03;4821990;29;20135;-68
2022/03/08 04:25:40;;;;;;;77.68;26.88;;;;;;;-149.78;100.00;50584.88;4806741;29;20056;-68
2022/03/08 04:28:06;;;;;;;73.35;24.67;;;;;;;-149.78;100.00;50557.50;4813906;29;20070;-68
2022/03/08 04:30:32;;;;;;;69.47;26.60;;;;;;;-149.78;100.00;50588.78;4805352;29;20043;-68
2022/03/08 04:32:58;;;;;;;72.07;26.23;;;;;;;-149.78;100.00;50553.59;4817715;29;20095;-68
2022/03/08 04:35:24;;;;;;;74.22;28.67;;;;;;;-149.78;100.00;50596.63;4825549;29;20058;-68
2022/03/08 04:37:50;;;;;;;67.90;25.23;;;;;;;-149.78;100.00;50561.41;4826741;29;20052;-68
2022/03/08 04:40:16;;;;;;;70.25;25.75;;;;;;;-149.78;100.00;50580.97;4825504;29;20103;-68
2022/03/08 04:42:42;;;;;;;73.80;25.98;;;;;;;-149.78;100.00;50592.72;4826716;29;20049;-68
2022/03/08 04:45:09;;;;;;;73.43;25.80;;;;;;;-149.78;100.00;50557.50;4814651;29;20035;-68
2022/03/08 04:47:35;;;;;;;70.80;26.45;;;;;;;-149.78;100.00;50557.50;4790589;29;20500;-68
2022/03/08 04:50:06;;;;;;;72.80;27.33;;;;;;;-149.78;100.00;50579.00;4790351;30;20041;-68
2022/03/08 04:52:31;;;;;;;74.53;26.38;;;;;;;-149.78;100.00;50549.69;4802136;29;20041;-68
2022/03/08 04:54:57;;;;;;;77.80;25.63;;;;;;;-149.78;100.00;50580.97;4826463;29;20046;-68
2022/03/08 04:57:23;;;;;;;71.82;25.42;;;;;;;-149.78;100.00;50553.59;4810369;29;20049;-68
2022/03/08 04:59:49;;;;;;;70.40;26.05;;;;;;;-149.78;100.00;50565.31;4826268;29;20042;-68
2022/03/08 05:02:14;;;;;;;65.00;24.23;;;;;;;-149.78;100.00;50573.16;4826432;29;20042;-68
2022/03/08 05:04:40;;;;;;;67.43;24.10;;;;;;;-149.78;100.00;50588.78;4826327;29;20498;-68
2022/03/08 05:07:06;;;;;;;70.10;25.17;;;;;;;-149.78;100.00;50561.41;4824944;29;20030;-68
2022/03/08 05:09:31;;;;;;;66.85;25.48;;;;;;;-149.78;100.00;50596.63;4826334;29;20479;-68
2022/03/08 05:11:58;;;;;;;69.90;24.38;;;;;;;-149.78;100.00;50600.53;4826127;29;20427;-68
2022/03/08 05:14:24;;;;;;;64.60;24.50;;;;;;;-149.78;100.00;50534.03;4825026;29;20410;-68
2022/03/08 05:16:51;;;;;;;67.43;24.63;;;;;;;-149.78;100.00;50602.47;4825947;29;20034;-68
2022/03/08 05:19:17;;;;;;;61.33;23.05;;;;;;;-149.78;100.00;50610.31;4817275;29;20130;-68
2022/03/08 05:21:43;;;;;;;66.20;24.48;;;;;;;-149.78;100.00;50577.06;4808034;29;20439;-68
2022/03/08 05:24:08;;;;;;;62.30;23.73;;;;;;;-149.78;100.00;50584.88;4806894;29;20051;-68
2022/03/08 05:26:37;;;;;;;63.72;23.15;;;;;;;-149.78;100.00;50573.16;4809361;29;20050;-68
2022/03/08 05:29:03;;;;;;;68.15;24.90;;;;;;;-149.78;100.00;50571.19;4824435;29;20043;-68
2022/03/08 05:31:29;;;;;;;63.03;23.85;;;;;;;-149.78;100.00;50606.41;4825815;29;20113;-68
2022/03/08 05:33:55;;;;;;;67.05;23.85;;;;;;;-149.78;100.00;50592.72;4825627;29;20053;-68
2022/03/08 05:36:20;;;;;;;58.90;23.60;;;;;;;-149.78;100.00;50573.16;4824526;29;20107;-68
2022/03/08 05:38:46;;;;;;;64.18;23.58;;;;;;;-149.78;100.00;50584.88;4824315;29;20054;-68
2022/03/08 05:41:12;;;;;;;64.35;22.60;;;;;;;-149.78;100.00;50584.88;4825560;29;20049;-68
2022/03/08 05:43:37;;;;;;;67.93;23.17;;;;;;;-149.78;100.00;50608.34;4808480;29;20046;-69
2022/03/08 05:46:03;;;;;;;75.53;23.90;;;;;;;-149.78;100.00;50596.63;4825703;29;20045;-68
2022/03/08 05:48:28;;;;;;;60.67;22.27;;;;;;;-149.78;100.00;50620.09;4824273;29;20129;-68
2022/03/08 05:50:54;;;;;;;69.30;23.92;;;;;;;-149.78;100.00;50565.31;4825454;29;20050;-68
2022/03/08 05:53:19;;;;;;;64.70;23.67;;;;;;;-149.78;100.00;50608.34;4825589;29;20535;-68
2022/03/08 05:55:45;;;;;;;62.38;24.17;;;;;;;-149.78;100.00;50586.84;4824384;29;20131;-68
2022/03/08 05:58:11;;;;;;;68.40;23.60;;;;;;;-149.78;100.00;50559.47;4825463;29;20129;-68
2022/03/08 06:00:36;;;;;;;61.55;22.60;;;;;;;-149.78;100.00;50584.88;4825345;29;20042;-68
2022/03/08 06:03:02;;;;;;;70.93;24.80;;;;;;;-149.78;100.00;50604.44;4825409;29;20063;-68
2022/03/08 06:05:27;;;;;;;61.92;23.63;;;;;;;-149.78;100.00;50604.44;4824260;29;20039;-68
2022/03/08 06:07:53;;;;;;;67.35;22.40;;;;;;;-149.78;100.00;50565.31;4824969;29;20469;-68
2022/03/08 06:10:19;;;;;;;54.00;21.80;;;;;;;-149.78;100.00;50596.63;4825125;29;20042;-68
2022/03/08 06:12:44;;;;;;;69.28;24.30;;;;;;;-149.78;100.00;50573.16;4825090;29;20129;-67
2022/03/08 06:15:11;;;;;;;62.03;22.38;;;;;;;-149.78;100.00;50608.34;4825168;29;20038;-68
2022/03/08 06:17:36;;;;;;;58.97;23.02;;;;;;;-149.78;100.00;50604.44;4824962;29;20436;-68
2022/03/08 06:20:02;;;;;;;64.70;23.45;;;;;;;-149.78;100.00;50608.34;4820847;29;20039;-68
2022/03/08 06:22:28;;;;;;;62.42;22.52;;;;;;;-149.78;100.00;50612.25;4806987;29;20043;-68
2022/03/08 06:24:54;;;;;;;56.90;21.17;;;;;;;-149.78;100.00;50616.19;4806797;29;20108;-68
2022/03/08 06:27:19;;;;;;;61.05;22.85;;;;;;;-149.78;100.00;50584.88;4822055;29;20034;-68
2022/03/08 06:29:45;;;;;;;58.67;22.38;;;;;;;-149.78;100.00;50561.41;4823640;29;20042;-68
2022/03/08 06:32:11;;;;;;;58.28;21.20;;;;;;;-149.78;100.00;50573.16;4808612;29;20114;-68
2022/03/08 06:34:36;;;;;;;58.75;22.40;;;;;;;-149.78;100.00;50598.56;4824577;29;20073;-68
2022/03/08 06:37:02;;;;;;;58.13;20.73;;;;;;;-149.78;100.00;50608.34;4824728;29;20506;-68
2022/03/08 06:39:29;;;;;;;55.83;20.90;;;;;;;-149.78;100.00;50563.38;4824752;29;20500;-68
2022/03/08 06:41:55;;;;;;;58.05;20.55;;;;;;;-149.78;100.00;50580.97;4824563;29;20491;-68
2022/03/08 06:44:21;;;;;;;60.00;22.05;;;;;;;-149.78;100.00;50588.78;4804379;29;20046;-68
2022/03/08 06:46:47;;;;;;;56.50;21.35;;;;;;;-149.78;100.00;50584.88;4786308;29;20419;-68
2022/03/08 06:49:14;;;;;;;60.50;20.67;;;;;;;-149.78;100.00;50577.06;4795809;29;20046;-69
2022/03/08 06:51:39;;;;;;;59.05;20.63;;;;;;;-149.78;100.00;50569.22;4796061;29;20042;-68
2022/03/08 06:54:06;;;;;;;53.05;20.75;;;;;;;-149.78;100.00;50565.31;4801309;29;20049;-69
2022/03/08 06:56:35;;;;;;;57.30;21.70;;;;;;;-149.78;100.00;50584.88;4782835;29;20066;-69
2022/03/08 06:59:01;;;;;;;55.67;22.08;;;;;;;-149.78;100.00;50616.19;4803949;29;20042;-69
2022/03/08 07:01:27;;;;;;;50.38;20.58;;;;;;;-149.78;100.00;50588.78;4791019;29;20411;-69
2022/03/08 07:03:53;;;;;;;59.92;20.23;;;;;;;-149.78;100.00;50580.97;4788053;30;20039;-68
2022/03/08 07:06:18;;;;;;;60.28;21.23;;;;;;;-149.78;100.00;50588.78;4799942;29;20683;-68
2022/03/08 07:08:44;;;;;;;54.53;20.67;;;;;;;-149.78;100.00;50573.16;4801476;29;20099;-68
2022/03/08 07:11:10;;;;;;;54.25;20.48;;;;;;;-149.78;100.00;50600.53;4805570;29;20038;-68
2022/03/08 07:13:36;;;;;;;52.05;18.92;;;;;;;-149.78;100.00;50569.22;4800705;29;20083;-68
2022/03/08 07:16:03;;;;;;;56.15;21.30;;;;;;;-149.78;100.00;50608.34;4798029;29;20039;-69
2022/03/08 07:18:29;;;;;;;49.70;19.80;;;;;;;-149.78;100.00;50580.97;4797207;29;20043;-69
2022/03/08 07:20:55;;;;;;;54.90;19.75;;;;;;;-149.78;100.00;50586.84;4783880;29;20311;-69
2022/03/08 07:23:20;;;;;;;60.45;19.73;;;;;;;-149.78;100.00;50553.59;4795768;29;20038;-68
2022/03/08 07:25:46;;;;;;;57.88;21.08;;;;;;;-149.78;100.00;50557.50;4808777;29;20041;-69
2022/03/08 07:28:12;;;;;;;54.88;21.63;;;;;;;-149.78;100.00;50604.44;4823903;29;20042;-70
2022/03/08 07:30:38;;;;;;;58.35;19.65;;;;;;;-149.78;100.00;50545.75;4817214;29;20026;-69
2022/03/08 07:33:03;;;;;;;53.65;20.17;;;;;;;-149.78;100.00;50545.75;4807052;29;20540;-70
2022/03/08 07:35:29;;;;;;;53.95;20.35;;;;;;;-149.78;100.00;50598.56;4823706;29;20050;-68
2022/03/08 07:37:55;;;;;;;56.40;20.60;;;;;;;-149.78;100.00;50577.06;4807263;29;20630;-69
2022/03/08 07:40:21;;;;;;;49.80;19.73;;;;;;;-149.78;100.00;50592.72;4823979;29;20042;-69
2022/03/08 07:42:48;;;;;;;51.90;19.67;;;;;;;-149.78;100.00;50559.47;4823799;29;20046;-69
2022/03/08 07:45:14;;;;;;;49.38;20.05;;;;;;;-149.78;100.00;50580.97;4808482;29;20511;-69
2022/03/08 07:47:40;;;;;;;52.28;20.17;;;;;;;-149.78;100.00;50588.78;4798019;29;20102;-69
2022/03/08 07:50:07;;;;;;;48.33;19.15;;;;;;;-149.78;100.00;50565.31;4781469;29;20122;-70
2022/03/08 07:52:32;;;;;;;52.78;18.45;;;;;;;-149.78;100.00;50526.22;4805472;29;20043;-70
2022/03/08 07:54:58;;;;;;;53.58;19.70;;;;;;;-149.78;100.00;50565.31;4805018;29;20456;-69
2022/03/08 07:57:24;;;;;;;54.78;19.77;;;;;;;-149.78;100.00;50541.84;4802769;29;20076;-70
2022/03/08 07:59:49;;;;;;;48.25;19.42;;;;;;;-149.78;100.00;50535.97;4797201;29;20031;-70
2022/03/08 08:02:15;;;;;;;51.28;19.08;;;;;;;-149.78;100.00;50506.66;4785228;29;20053;-70
2022/03/08 08:04:41;;;;;;;48.35;17.73;;;;;;;-149.78;100.00;50498.81;4782804;29;20101;-69
2022/03/08 08:07:07;;;;;;;49.70;18.27;;;;;;;-149.78;100.00;50487.09;4801804;29;20459;-70
2022/03/08 08:09:33;;;;;;;40.92;17.23;;;;;;;-149.78;100.00;50483.19;4799347;29;20480;-70
2022/03/08 08:11:59;;;;;;;45.03;18.83;;;;;;;-149.78;100.00;50479.28;4795629;29;20049;-70
2022/03/08 08:14:26;;;;;;;41.47;18.23;;;;;;;-149.78;100.00;50440.16;4799459;29;20046;-70
2022/03/08 08:16:51;;;;;;;37.70;18.15;;;;;;;-149.78;100.00;50420.59;4783136;29;20050;-68
2022/03/08 08:19:17;;;;;;;37.58;17.35;;;;;;;-149.78;100.00;50455.81;4796040;29;20035;-68
2022/03/08 08:21:43;;;;;;;38.65;18.27;;;;;;;-149.78;100.00;50459.72;4793892;29;20550;-68
2022/03/08 08:24:09;;;;;;;42.28;18.25;;;;;;;-149.78;100.00;50401.03;4782880;29;20043;-68
2022/03/08 08:26:35;;;;;;;39.92;18.85;;;;;;;-149.78;100.00;50453.84;4802944;29;20109;-68
2022/03/08 08:29:01;;;;;;;39.47;18.90;;;;;;;-149.78;100.00;50475.34;4795843;29;20502;-69
2022/03/08 08:31:28;;;;;;;37.95;18.17;;;;;;;-149.78;100.00;50404.94;4799695;29;20400;-69
2022/03/08 08:33:55;;;;;;;40.35;18.45;;;;;;;-149.78;100.00;50447.97;4788260;29;20050;-68
2022/03/08 08:36:21;;;;;;;40.08;19.00;;;;;;;-149.78;100.00;50393.22;4787177;29;20403;-69
2022/03/08 08:38:47;;;;;;;40.63;18.80;;;;;;;-149.78;100.00;50432.31;4800656;29;20038;-68
2022/03/08 08:41:12;;;;;;;41.45;19.65;;;;;;;-149.78;100.00;50408.84;4792915;29;20423;-68
2022/03/08 08:43:38;;;;;;;36.08;18.30;;;;;;;-149.78;100.00;50408.84;4770677;29;20373;-68
2022/03/08 08:46:04;;;;;;;44.03;20.63;;;;;;;-149.78;100.00;50358.00;4786908;30;20039;-69
2022/03/08 08:48:30;;;;;;;41.00;19.40;;;;;;;-149.78;100.00;50397.13;4785555;30;20031;-69
2022/03/08 08:50:56;;;;;;;42.38;19.08;;;;;;;-149.78;100.00;50397.13;4786720;30;20047;-69
2022/03/08 08:53:26;;;;;;;38.60;19.15;;;;;;;-149.78;100.00;50385.38;4786934;30;20050;-68
2022/03/08 08:55:52;;;;;;;36.63;18.02;;;;;;;-149.78;100.00;50401.03;4786743;30;20043;-68
2022/03/08 08:58:17;;;;;;;39.75;18.67;;;;;;;-149.78;100.00;50397.13;4785479;30;20481;-68
2022/03/08 09:00:43;;;;;;;38.28;19.38;;;;;;;-149.78;100.00;50385.38;4786760;30;20392;-68
2022/03/08 09:03:14;;;;;;;42.15;19.20;;;;;;;-149.78;100.00;50451.88;4799525;29;20038;-68
2022/03/08 09:05:45;;;;;;;43.25;19.65;;;;;;;-149.78;100.00;50434.28;4804439;29;20038;-68
2022/03/08 09:08:11;;;;;;;36.47;18.30;;;;;;;-149.78;100.00;50404.94;4791222;29;21715;-68
2022/03/08 09:10:37;;;;;;;43.17;18.88;;;;;;;-149.78;100.00;50424.50;4784472;29;20039;-68
2022/03/08 09:13:05;;;;;;;39.85;19.45;;;;;;;-149.78;100.00;50389.31;4785560;29;20400;-68
2022/03/08 09:15:31;;;;;;;36.78;19.05;;;;;;;-149.78;100.00;50365.84;4798951;29;20039;-68
2022/03/08 09:17:57;;;;;;;42.53;18.95;;;;;;;-149.78;100.00;50406.91;4783841;29;20047;-68
2022/03/08 09:20:25;;;;;;;42.65;19.80;;;;;;;-149.78;100.00;50416.69;4797581;29;20535;-67
2022/03/08 09:22:55;;;;;;;39.08;19.45;;;;;;;-149.78;100.00;50379.53;4798599;29;20043;-69
2022/03/08 09:25:22;;;;;;;39.47;19.23;;;;;;;-149.78;100.00;50393.22;4790704;29;20138;-67
2022/03/08 09:27:48;;;;;;;40.28;18.85;;;;;;;-149.78;100.00;50422.56;4800677;29;20038;-68
2022/03/08 09:30:14;;;;;;;42.60;19.05;;;;;;;-149.78;100.00;50404.94;4807209;29;20042;-68
2022/03/08 09:32:40;;;;;;;36.58;18.17;;;;;;;-149.78;100.00;50401.03;4804865;29;20034;-67
2022/03/08 09:35:06;;;;;;;42.80;18.73;;;;;;;-149.78;100.00;50397.13;4807496;29;20396;-67
2022/03/08 09:37:32;;;;;;;40.92;18.77;;;;;;;-149.78;100.00;50385.38;4808347;29;20130;-68
2022/03/08 09:39:58;;;;;;;45.00;19.02;;;;;;;-149.78;100.00;50428.41;4807920;29;20150;-69
2022/03/08 09:42:23;;;;;;;39.25;18.55;;;;;;;-149.78;100.00;50399.09;4807004;29;20043;-68
2022/03/08 09:44:49;;;;;;;42.25;19.52;;;;;;;-149.78;100.00;50393.22;4791032;29;20051;-68
2022/03/08 09:47:22;;;;;;;40.40;19.00;;;;;;;-149.78;77.56;50342.38;4804581;29;20038;-68
2022/03/08 09:49:49;;;;;;;42.72;19.70;;;;;;;-149.78;68.07;50309.13;4806897;29;20105;-69
2022/03/08 09:52:15;;;;;;;36.50;18.70;;;;;;;-149.78;64.57;50303.25;4807470;29;20046;-68
2022/03/08 09:54:42;;;;;;;38.72;19.85;;;;;;;-149.78;68.91;50314.97;4776498;29;20043;-68
2022/03/08 09:57:13;;;;;;;38.15;18.48;;;;;;;-149.78;65.83;50354.09;4782862;29;20074;-68
2022/03/08 09:59:39;;;;;;;38.83;19.85;;;;;;;-149.78;77.68;50348.22;4792337;29;20469;-68
2022/03/08 10:02:05;;;;;;;42.22;20.85;;;;;;;-149.78;69.18;50350.19;4798951;29;20126;-68
2022/03/08 10:04:31;;;;;;;35.70;19.05;;;;;;;-149.78;68.42;50348.22;4798965;29;20114;-68
2022/03/08 10:06:58;;;;;;;39.17;19.42;;;;;;;-149.78;62.77;50283.69;4814903;29;20050;-68
2022/03/08 10:09:25;;;;;;;39.90;20.33;;;;;;;-149.78;65.72;50279.78;4825411;29;20375;-69
2022/03/08 10:11:55;;;;;;;46.63;20.65;;;;;;;-149.78;68.52;50350.19;4808892;29;20123;-68
2022/03/08 10:14:39;;;;;;;41.35;20.13;;;;;;;-149.78;63.36;50303.25;4825234;29;20046;-68
2022/03/08 10:17:10;;;;;;;41.67;20.55;;;;;;;-149.78;59.84;50338.44;4808489;29;20042;-69
2022/03/08 10:19:49;;;;;;;35.73;19.23;;;;;;;-149.78;56.18;50295.44;4806506;29;20521;-69
2022/03/08 10:22:30;;;;;;;35.85;19.75;;;;;;;-149.78;64.00;50297.38;4788982;30;20303;-69
2022/03/08 10:25:25;;;;;;;40.42;19.33;;;;;;;-149.78;63.53;50322.81;4787137;30;20031;-68
2022/03/08 10:27:56;;;;;;;41.55;20.17;;;;;;;-149.78;65.07;50334.53;4795221;29;20122;-68
2022/03/08 10:30:47;;;;;;;45.28;19.90;;;;;;;-149.78;69.82;50344.31;4788520;29;20104;-68
2022/03/08 10:33:19;;;;;;;39.35;19.75;;;;;;;-149.78;72.25;50373.66;4788745;30;20035;-68
2022/03/08 10:35:47;;;;;;;39.28;19.73;;;;;;;-149.78;63.26;50334.53;4810442;29;20093;-69
2022/03/08 10:38:14;;;;;;;43.60;20.63;;;;;;;-149.78;63.53;50322.81;4808599;29;20045;-68
2022/03/08 10:40:41;;;;;;;42.22;20.15;;;;;;;-149.78;66.93;50350.19;4790696;29;20034;-68
2022/03/08 10:43:15;;;;;;;38.75;18.85;;;;;;;-149.78;65.09;50326.72;4804467;29;20192;-68
2022/03/08 10:45:46;;;;;;;41.83;19.50;;;;;;;-149.78;62.83;50322.81;4790213;29;20433;-68
2022/03/08 10:48:14;;;;;;;42.70;19.52;;;;;;;-149.78;65.81;50338.44;4803430;29;20118;-68
2022/03/08 10:50:42;;;;;;;44.25;20.73;;;;;;;-149.78;59.46;50320.84;4787317;30;20043;-68
2022/03/08 10:53:08;;;;;;;40.92;19.35;;;;;;;-149.78;59.62;50270.00;4788567;30;20447;-68